Date,TemperatureHighF,TemperatureAvgF,TemperatureLowF,DewpointHighF,DewpointAvgF,DewpointLowF,HumidityHigh,HumidityAvg,HumidityLow,PressureMaxIn,PressureMinIn,WindSpeedMaxMPH,WindSpeedAvgMPH,GustSpeedMaxMPH,PrecipitationSumIn
2013-1-1,16.8,6.2,-8.3,14.0,3.0,-11.6,94,87,80,30.33,30.10,9,4,18,0.00
2013-1-2,28.9,18.7,4.7,26.6,16.5,2.2,96,91,83,30.16,30.00,14,5,19,0.00
2013-1-3,25.2,12.8,4.6,23.7,9.8,1.3,94,88,83,30.36,30.15,13,9,16,0.00
2013-1-4,26.6,17.2,9.6,19.7,13.3,7.0,92,85,74,30.21,30.11,13,6,17,0.00
2013-1-5,23.5,16.0,5.5,19.4,12.9,2.2,93,88,81,30.12,29.91,15,7,19,0.00
2013-1-6,25.1,15.1,5.3,19.1,11.5,2.1,91,86,77,30.30,30.07,10,5,19,0.00
2013-1-7,33.7,26.5,12.7,29.1,23.1,10.8,97,87,81,30.07,29.94,12,6,16,0.00
2013-1-8,34.1,22.8,9.2,29.8,20.4,7.1,96,91,83,30.04,29.76,14,5,18,0.00
2013-1-9,43.9,30.4,21.5,31.3,26.6,19.5,96,86,59,30.37,30.03,12,5,18,0.01
2013-1-10,36.1,32.3,26.4,33.5,29.0,22.3,99,88,77,30.29,29.66,10,5,18,0.13
2013-1-11,40.1,35.6,26.7,40.1,35.4,25.5,100,99,95,29.65,29.34,20,6,22,0.00
2013-1-12,26.7,13.4,5.7,25.5,8.7,0.9,95,81,73,30.11,29.49,24,13,29,0.01
2013-1-13,13.8,6.9,2.4,7.1,2.3,-1.6,88,81,64,30.33,30.09,12,7,21,0.00
2013-1-14,24.3,12.8,1.5,16.1,8.4,-1.0,91,83,67,30.47,30.32,8,4,15,0.00
2013-1-15,31.9,20.7,11.4,18.9,14.6,8.2,88,78,54,30.34,29.92,14,6,20,0.00
2013-1-16,43.3,28.7,11.4,36.5,24.3,6.2,93,83,72,30.22,29.78,16,10,20,0.00
2013-1-17,33.6,20.4,6.8,26.5,14.3,1.5,91,77,58,30.42,30.23,10,4,18,0.00
2013-1-18,47.9,36.1,24.9,35.7,30.2,22.7,95,80,60,30.24,29.78,14,8,18,0.00
2013-1-19,46.5,30.3,6.7,35.2,24.8,0.7,92,80,62,30.27,29.72,23,10,29,0.00
2013-1-20,9.6,5.4,0.0,5.6,0.9,-4.5,87,81,75,30.44,30.27,12,7,18,0.00
2013-1-21,3.5,-3.7,-11.8,-2.8,-9.2,-17.0,83,77,70,30.47,30.37,15,9,20,0.00
2013-1-22,13.9,5.2,-8.4,9.1,-1.0,-12.2,86,76,65,30.48,30.25,7,3,17,0.00
2013-1-23,19.8,10.1,-4.5,14.5,4.4,-10.4,89,78,65,30.60,30.18,18,10,22,0.00
2013-1-24,15.5,5.4,-5.0,6.8,-2.3,-11.2,76,70,63,30.65,30.17,11,7,20,0.00
2013-1-25,29.0,14.7,3.4,22.7,8.7,-1.4,86,77,63,30.32,30.07,18,8,23,0.00
2013-1-26,28.8,15.4,1.2,18.1,8.1,-3.0,84,73,60,30.33,30.08,11,6,20,0.00
2013-1-27,31.8,30.4,25.4,31.1,27.2,17.0,98,88,69,30.08,29.72,9,4,12,0.00
2013-1-28,33.4,31.8,30.4,33.4,31.7,30.2,100,99,98,29.85,29.52,4,2,8,0.00
2013-1-29,33.1,29.5,22.0,33.1,28.8,20.5,100,97,93,29.71,29.50,21,10,27,0.01
2013-1-30,22.1,16.1,5.6,20.6,12.4,1.6,94,85,77,29.86,29.63,21,15,30,0.00
2013-1-31,5.6,-1.1,-7.9,1.6,-6.7,-13.4,84,77,68,30.41,29.86,19,13,27,0.00
2013-2-1,18.7,4.4,-10.0,14.8,-1.0,-13.7,90,78,65,30.42,30.04,9,4,26,0.00
2013-2-2,30.7,15.9,3.2,28.1,12.7,0.4,96,87,75,30.21,29.96,19,7,27,0.00
2013-2-3,34.5,20.0,8.9,27.5,16.2,6.1,93,85,74,30.14,29.78,20,6,30,0.00
2013-2-4,24.1,17.3,9.0,19.9,13.5,6.7,93,85,71,30.05,29.81,14,7,20,0.00
2013-2-5,38.2,27.1,17.7,32.8,24.1,15.5,95,89,73,30.07,29.73,15,7,19,0.00
2013-2-6,43.1,30.2,16.0,36.4,26.7,14.1,94,87,73,30.08,29.82,11,4,19,0.00
2013-2-7,32.8,25.6,22.2,31.3,24.3,20.5,98,95,91,30.24,29.89,16,10,19,0.00
2013-2-8,30.1,24.4,21.1,24.6,21.5,18.7,95,89,79,30.34,30.17,12,5,18,0.00
2013-2-9,37.3,28.9,23.9,32.8,27.1,22.7,97,93,83,30.18,29.76,12,9,16,0.00
2013-2-10,36.7,31.6,26.2,36.7,31.2,24.5,100,98,91,29.77,29.17,19,8,27,0.22
2013-2-11,26.6,23.2,19.7,25.5,20.0,16.1,96,87,82,30.09,29.48,21,14,29,0.00
2013-2-12,38.5,27.1,17.0,31.6,23.4,15.0,94,86,73,30.09,29.83,11,6,28,0.00
2013-2-13,44.9,32.2,21.9,37.3,28.8,20.3,95,88,71,29.84,29.59,13,6,17,0.00
2013-2-14,34.6,26.6,12.3,31.7,23.7,6.7,96,88,78,30.22,29.62,17,10,23,0.00
2013-2-15,21.0,13.2,7.8,15.5,9.1,3.8,90,84,75,30.36,30.22,12,6,17,0.00
2013-2-16,33.9,18.6,4.7,24.6,14.6,2.2,95,85,62,30.32,30.05,5,2,17,0.00
2013-2-17,40.1,28.9,17.6,32.8,24.6,15.7,93,84,72,30.05,29.55,12,8,16,0.00
2013-2-18,34.9,24.4,6.4,32.1,20.4,2.1,96,85,74,29.93,29.51,24,13,28,0.00
2013-2-19,12.3,5.0,-2.9,5.0,-0.6,-7.3,85,78,67,30.45,29.93,20,14,32,0.00
2013-2-20,23.8,7.3,-5.7,10.2,0.9,-9.5,88,76,52,30.50,30.35,8,4,22,0.00
2013-2-21,24.9,17.4,10.9,17.3,12.3,7.8,93,81,62,30.38,29.95,10,5,18,0.00
2013-2-22,23.2,17.4,10.3,19.4,15.0,8.0,94,90,82,29.96,29.87,14,8,17,0.00
2013-2-23,31.3,13.4,1.4,22.3,9.9,-1.2,94,86,68,29.95,29.88,7,2,14,0.00
2013-2-24,30.1,18.7,5.6,23.8,15.7,3.2,93,88,74,30.10,29.93,3,1,7,0.00
2013-2-25,27.0,23.6,22.1,25.0,22.2,20.7,97,94,89,30.11,29.97,8,4,12,0.00
2013-2-26,28.0,24.2,21.3,25.5,22.7,19.7,97,94,89,29.99,29.83,17,10,22,0.00
2013-2-27,33.9,24.4,20.2,27.3,21.0,17.8,94,87,71,30.03,29.85,18,13,23,0.00
2013-2-28,26.7,23.0,16.7,23.3,20.7,15.0,95,91,86,30.20,30.03,12,8,20,0.00
2013-3-1,23.4,20.5,12.3,21.3,17.2,9.9,93,87,77,30.37,30.19,12,8,16,0.00
2013-3-2,36.3,17.2,1.0,22.5,12.8,-1.5,94,84,55,30.35,30.13,5,2,15,0.00
2013-3-3,33.5,25.4,18.6,26.8,22.0,16.8,94,87,74,30.13,29.82,10,7,14,0.00
2013-3-4,28.9,27.0,24.9,28.3,26.1,23.5,98,96,94,29.96,29.74,11,5,15,0.00
2013-3-5,28.7,24.6,19.5,27.8,22.0,17.3,98,90,85,30.31,29.92,19,11,26,0.00
2013-3-6,30.2,22.0,18.5,23.7,18.9,16.8,93,88,72,30.43,30.31,11,5,26,0.00
2013-3-7,32.0,22.2,13.1,27.0,19.6,11.7,95,90,79,30.33,30.20,10,6,12,0.01
2013-3-8,39.2,28.8,18.4,34.1,26.5,17.2,97,91,81,30.26,29.97,10,5,11,0.31
2013-3-9,39.1,35.1,31.8,39.1,35.0,31.8,100,100,97,29.97,29.59,15,7,21,0.71
2013-3-10,31.8,27.4,22.7,31.8,27.0,22.0,100,98,97,29.88,29.70,25,20,34,0.01
2013-3-11,28.3,23.4,19.2,23.3,20.5,16.2,97,89,77,29.91,29.80,19,11,34,0.00
2013-3-12,27.9,24.1,19.6,26.6,21.0,15.7,96,88,81,30.25,29.90,19,13,24,0.00
2013-3-13,30.6,20.0,10.2,22.5,16.0,8.1,94,85,67,30.43,30.24,15,4,24,0.00
2013-3-14,46.7,33.1,22.5,40.6,29.3,20.0,98,86,74,30.24,30.00,7,3,8,0.00
2013-3-15,39.7,34.8,32.6,36.0,33.5,31.7,99,95,86,30.00,29.71,10,4,13,0.00
2013-3-16,32.5,25.2,17.7,32.3,22.8,14.2,99,90,84,30.22,29.81,15,11,21,0.00
2013-3-17,31.3,22.6,11.8,28.8,18.6,8.4,95,85,75,30.22,29.77,11,8,19,0.00
2013-3-18,32.2,21.6,13.2,31.7,17.4,7.8,98,84,71,29.97,29.64,23,16,30,0.00
2013-3-19,29.2,17.2,8.1,23.0,11.5,4.0,87,78,65,30.31,29.95,15,10,27,0.00
2013-3-20,24.0,15.7,8.7,14.2,8.8,4.0,84,74,62,30.36,30.16,17,12,23,0.00
2013-3-21,33.0,18.1,4.7,19.4,10.8,1.5,90,74,51,30.17,30.01,8,2,23,0.00
2013-3-22,36.5,23.9,11.7,22.0,17.4,10.1,95,78,53,30.09,30.02,4,1,6,0.00
2013-3-23,31.1,26.9,21.6,23.7,21.7,18.8,94,81,65,30.15,30.04,12,5,15,0.00
2013-3-24,30.7,25.8,21.0,26.7,22.9,17.7,97,89,80,30.09,29.95,14,11,19,0.00
2013-3-25,33.5,26.6,21.3,26.4,22.6,18.0,96,85,68,30.28,30.02,17,12,22,0.00
2013-3-26,42.2,26.5,16.6,27.2,20.4,13.9,93,79,50,30.33,30.25,9,4,22,0.00
2013-3-27,41.5,32.0,21.5,32.1,27.1,19.0,96,83,62,30.30,30.23,5,2,10,0.00
2013-3-28,46.0,36.5,28.3,39.2,32.7,26.1,95,86,74,30.27,30.18,6,3,8,0.00
2013-3-29,53.1,42.2,33.5,42.6,37.1,31.4,93,83,65,30.21,29.97,9,5,13,0.00
2013-3-30,58.1,48.0,33.7,49.8,41.8,32.7,97,80,58,29.97,29.80,24,8,28,0.00
2013-3-31,39.1,33.1,22.9,33.9,28.4,17.2,99,84,56,30.12,29.83,18,10,26,0.00
2013-4-1,35.0,26.0,17.7,21.7,17.7,13.4,87,72,52,30.30,30.12,16,9,26,0.00
2013-4-2,42.1,29.8,17.7,28.3,22.9,16.3,96,77,51,30.34,30.27,10,3,18,0.00
2013-4-3,50.8,36.7,26.0,34.7,28.7,23.1,90,74,51,30.35,30.10,11,6,16,0.00
2013-4-4,52.8,40.9,30.5,37.0,31.8,27.6,90,71,46,30.13,30.04,15,8,19,0.00
2013-4-5,49.2,38.0,27.6,36.0,30.1,25.2,91,75,54,30.16,29.70,12,8,17,0.00
2013-4-6,56.7,46.4,33.2,47.2,40.9,31.7,95,81,68,29.73,29.45,17,9,24,0.05
2013-4-7,50.7,38.3,28.5,46.0,36.2,27.5,99,93,75,29.90,29.62,9,4,21,0.09
2013-4-8,60.9,47.5,33.6,53.2,45.2,33.1,100,92,73,29.86,29.56,17,6,23,0.01
2013-4-9,43.2,36.4,33.3,42.1,36.2,33.3,100,99,95,30.07,29.75,22,15,31,2.22
2013-4-10,33.3,31.5,29.8,33.3,31.4,29.6,100,99,98,29.99,29.74,19,9,30,0.00
2013-4-11,35.4,32.7,31.3,35.4,32.7,31.3,100,100,100,29.76,29.55,10,4,15,0.40
2013-4-12,32.7,30.1,28.1,31.3,28.2,26.4,100,93,83,29.89,29.60,14,10,19,0.00
2013-4-13,40.9,32.8,24.6,34.3,29.2,23.3,96,87,72,29.95,29.78,11,5,19,0.01
2013-4-14,54.2,40.6,35.3,52.0,38.9,32.7,100,94,81,29.78,29.28,20,9,27,0.17
2013-4-15,40.1,34.9,29.9,33.1,29.8,25.3,90,81,72,30.03,29.53,19,12,27,0.00
2013-4-16,46.2,37.3,29.1,36.4,31.4,27.6,96,80,58,30.24,30.01,11,7,27,0.00
2013-4-17,37.1,35.2,33.2,36.8,33.9,30.9,100,95,81,30.22,29.79,16,9,19,0.78
2013-4-18,33.5,31.2,28.9,33.5,31.1,28.7,100,100,99,29.82,29.59,20,15,26,0.07
2013-4-19,34.2,28.9,22.8,29.8,25.3,20.6,99,87,75,30.05,29.65,21,14,25,0.01
2013-4-20,44.2,33.3,19.6,32.2,24.9,17.2,92,73,49,30.25,30.05,8,4,25,0.00
2013-4-21,59.6,44.3,36.4,50.2,39.5,31.5,99,84,56,30.18,29.96,16,8,30,0.03
2013-4-22,37.3,33.9,29.2,36.0,33.4,29.0,100,98,94,30.15,29.99,20,12,27,0.35
2013-4-23,34.6,28.7,22.7,29.0,24.8,20.5,99,86,64,30.19,30.11,18,12,24,0.00
2013-4-24,51.7,35.2,23.1,42.1,29.4,21.4,99,81,50,30.12,29.91,23,9,26,0.05
2013-4-25,59.9,42.6,26.5,39.8,32.6,24.0,97,71,42,30.20,29.97,11,5,23,0.00
2013-4-26,73.0,57.0,45.4,44.9,38.9,-99.9,79,56,28,30.08,29.93,16,7,22,0.00
2013-4-27,70.9,55.3,36.4,52.7,44.2,33.8,94,69,41,30.08,29.84,7,3,15,0.00
2013-4-28,81.2,62.6,47.3,51.8,48.2,44.9,92,64,30,29.85,29.56,17,6,24,0.00
2013-4-29,75.5,60.9,45.7,57.7,51.9,42.7,95,74,47,29.74,29.38,10,6,21,0.08
2013-4-30,69.6,63.5,51.7,60.1,48.0,34.1,91,60,29,29.85,29.34,18,10,23,0.03
2013-5-1,52.3,35.6,30.4,44.2,34.8,30.2,100,97,69,30.42,29.85,19,14,25,0.55
2013-5-2,45.6,37.5,32.4,35.5,31.1,28.2,91,78,61,30.52,30.38,22,16,29,0.02
2013-5-3,40.4,34.6,29.5,34.8,30.5,26.1,98,85,71,30.38,30.05,20,13,29,0.01
2013-5-4,40.7,36.2,32.3,40.6,35.7,31.2,100,98,93,30.13,30.00,18,13,26,0.13
2013-5-5,52.0,44.9,39.2,49.3,43.9,39.2,100,96,89,30.14,30.06,11,7,19,0.01
2013-5-6,68.1,54.2,42.6,54.8,48.8,42.0,99,83,60,30.08,29.96,6,3,13,0.00
2013-5-7,74.2,59.8,41.8,56.1,49.7,41.3,100,73,39,30.00,29.86,7,2,11,0.00
2013-5-8,70.8,59.7,53.6,59.2,54.4,48.9,100,84,54,29.88,29.83,10,2,14,0.48
2013-5-9,61.6,55.9,47.0,57.7,54.3,44.9,100,94,77,29.95,29.80,18,8,23,0.00
2013-5-10,66.9,53.2,38.1,48.4,40.4,33.9,93,65,30,30.02,29.88,16,8,25,0.00
2013-5-11,54.9,47.7,34.1,45.4,29.0,19.8,79,51,28,30.16,29.89,23,14,34,0.00
2013-5-12,61.5,45.9,27.5,42.0,24.7,17.7,86,50,19,30.21,30.05,12,5,34,0.00
2013-5-13,81.3,63.5,45.4,50.8,42.0,28.5,78,47,32,30.06,29.64,19,7,26,0.00
2013-5-14,101.6,76.1,55.7,61.2,44.0,-99.9,84,42,16,29.65,29.41,22,9,27,0.00
2013-5-15,81.4,54.3,53.9,55.0,14.3,-99.9,75,36,28,29.82,29.62,19,5,25,0.00
2013-5-16,83.1,67.3,49.9,62.0,51.6,41.2,95,63,24,29.81,29.65,16,3,23,0.27
2013-5-17,78.2,67.2,60.5,67.5,63.0,59.6,99,87,66,29.78,29.71,15,6,17,0.27
2013-5-18,79.8,71.4,62.4,66.6,63.3,59.8,92,76,57,29.82,29.61,11,6,14,0.00
2013-5-19,71.6,66.3,61.5,66.1,63.5,60.6,100,91,78,29.64,29.39,14,5,21,0.46
2013-5-20,71.0,61.9,55.6,63.1,58.5,54.5,100,89,63,29.48,29.37,15,7,22,0.18
2013-5-21,60.3,56.8,52.8,56.8,53.1,50.0,100,88,73,29.57,29.41,12,6,17,0.02
2013-5-22,54.1,51.0,47.6,54.1,50.1,46.8,100,97,92,29.88,29.56,14,9,17,0.03
2013-5-23,64.6,55.4,45.4,50.7,44.6,36.2,98,70,36,30.22,29.88,15,8,20,0.00
2013-5-24,72.0,58.8,46.6,55.4,47.7,40.4,85,68,44,30.25,30.04,13,6,18,0.10
2013-5-25,59.4,54.6,49.9,54.0,51.6,49.5,99,90,75,30.07,29.99,12,9,17,0.00
2013-5-26,56.2,52.0,49.0,55.7,51.7,48.7,100,99,96,30.07,29.79,20,6,21,1.96
2013-5-27,60.2,56.1,53.0,60.2,56.0,52.8,100,100,99,29.90,29.66,21,6,30,0.91
2013-5-28,71.7,62.0,57.0,66.6,60.6,57.0,100,96,78,29.67,29.57,8,2,18,0.00
2013-5-29,74.2,66.1,58.2,69.2,63.9,57.9,100,93,74,29.66,29.48,13,5,16,0.23
2013-5-30,69.8,65.0,57.9,66.4,62.9,57.3,100,93,77,29.51,29.35,18,7,24,0.26
2013-5-31,75.0,64.5,56.4,58.3,54.4,50.6,100,72,44,29.50,29.43,19,9,28,0.05
2013-6-1,64.6,57.2,52.2,59.7,53.3,47.2,100,87,77,29.89,29.47,16,8,22,0.00
2013-6-2,70.4,57.3,48.6,48.6,45.6,39.9,95,68,37,30.02,29.89,16,6,18,0.00
2013-6-3,70.5,61.5,48.7,53.1,49.3,44.3,89,66,47,29.97,29.79,13,4,18,0.00
2013-6-4,63.0,57.9,55.9,57.9,55.5,52.2,100,92,68,29.93,29.82,10,5,18,1.94
2013-6-5,64.2,59.4,55.3,56.8,54.2,51.4,100,84,66,29.93,29.85,10,5,14,0.01
2013-6-6,63.7,57.3,49.7,55.6,52.9,48.9,100,86,66,29.94,29.84,10,5,14,0.00
2013-6-7,68.6,57.1,47.5,53.1,50.8,47.0,99,81,52,29.97,29.82,7,2,14,0.00
2013-6-8,62.4,58.3,54.9,59.0,55.4,51.3,100,90,78,29.83,29.64,11,5,14,1.05
2013-6-9,70.9,62.8,57.9,63.2,60.6,57.9,100,93,73,29.69,29.53,10,4,13,0.11
2013-6-10,75.0,65.1,58.7,66.0,61.9,58.1,100,90,71,29.78,29.69,6,3,9,0.00
2013-6-11,87.1,74.7,63.2,71.0,66.9,62.0,97,78,54,29.76,29.63,9,2,15,0.00
2013-6-12,77.5,68.1,61.6,72.4,65.5,56.0,100,91,80,29.86,29.49,18,8,24,0.40
2013-6-13,81.1,68.0,55.5,61.6,57.0,52.4,91,70,43,30.00,29.86,11,4,18,0.00
2013-6-14,75.1,68.5,63.3,66.9,62.8,58.4,100,82,68,29.96,29.70,12,6,17,0.72
2013-6-15,80.3,70.2,62.7,71.4,65.7,61.5,100,86,63,29.88,29.72,15,3,19,0.11
2013-6-16,85.2,71.7,57.8,63.9,57.5,48.1,100,67,29,29.86,29.78,8,2,17,0.01
2013-6-17,85.5,72.1,59.0,61.3,56.4,50.5,90,61,32,29.88,29.80,13,4,17,0.00
2013-6-18,81.3,70.4,58.1,62.8,58.5,55.2,93,68,43,29.94,29.86,7,2,10,0.00
2013-6-19,84.1,74.4,63.9,66.6,62.7,58.1,87,68,47,29.92,29.78,11,5,14,0.00
2013-6-20,85.9,77.4,68.2,71.0,67.8,64.5,89,73,57,29.85,29.71,13,8,21,0.00
2013-6-21,89.3,76.9,63.2,76.9,71.0,61.7,100,83,61,29.80,29.65,16,6,21,0.17
2013-6-22,82.6,71.7,62.6,73.9,67.3,62.4,100,87,60,29.92,29.65,19,4,27,1.18
2013-6-23,82.5,74.4,65.6,70.4,66.5,62.3,94,78,55,29.78,29.49,12,5,17,0.08
2013-6-24,78.3,70.6,64.6,71.4,67.3,63.0,99,90,72,29.79,29.63,11,3,15,0.06
2013-6-25,87.2,77.2,68.4,74.9,70.5,67.5,99,81,54,29.68,29.55,9,3,14,0.00
2013-6-26,87.7,78.9,69.3,75.8,70.2,64.4,100,77,47,29.73,29.52,10,4,15,0.00
2013-6-27,85.9,75.1,66.0,70.7,64.3,58.5,98,71,41,29.81,29.72,9,4,15,0.00
2013-6-28,82.3,73.4,61.2,62.5,58.9,55.1,88,62,41,29.79,29.71,15,7,24,0.00
2013-6-29,77.3,68.4,62.8,63.7,59.4,56.5,88,74,50,29.85,29.69,14,7,24,0.00
2013-6-30,77.0,66.0,54.9,57.5,53.5,49.1,94,67,40,30.03,29.85,10,4,21,0.00
2013-7-1,82.3,69.8,53.0,62.3,55.6,51.1,96,65,37,30.09,30.02,8,3,19,0.00
2013-7-2,82.0,71.1,56.9,64.4,58.3,55.3,98,67,42,30.04,29.93,7,2,14,0.00
2013-7-3,86.5,73.5,57.0,62.6,58.4,53.8,98,63,34,29.95,29.82,5,1,12,0.00
2013-7-4,85.7,75.3,62.6,63.6,59.8,56.5,85,61,38,29.85,29.75,10,4,14,0.00
2013-7-5,87.3,77.2,68.2,69.1,63.5,58.6,77,64,45,29.78,29.69,8,5,13,0.00
2013-7-6,90.0,77.9,70.1,70.9,65.8,61.8,77,67,49,29.74,29.64,8,6,16,0.00
2013-7-7,94.4,80.3,69.5,76.3,69.5,65.3,99,71,48,29.78,29.68,10,3,16,0.16
2013-7-8,91.3,77.1,66.7,76.1,71.0,66.7,100,83,50,29.85,29.75,4,1,9,0.00
2013-7-9,88.3,78.4,67.6,77.7,71.9,65.5,96,81,63,29.83,29.70,11,4,15,0.17
2013-7-10,83.0,70.8,60.4,67.5,60.7,56.6,97,73,43,29.97,29.83,7,3,15,0.00
2013-7-11,85.0,73.7,62.0,66.6,61.4,58.5,92,67,46,30.00,29.85,7,3,13,0.00
2013-7-12,87.1,76.8,66.0,69.8,64.3,59.5,81,66,50,29.89,29.76,12,7,17,0.00
2013-7-13,82.9,75.2,66.9,71.7,66.5,62.7,96,75,65,29.91,29.80,8,6,16,0.23
2013-7-14,86.5,76.4,67.9,67.7,64.8,61.9,86,69,46,30.05,29.90,10,4,13,0.00
2013-7-15,90.8,77.8,64.7,72.8,67.7,62.2,93,72,49,30.10,29.99,5,2,8,0.00
2013-7-16,89.9,80.7,70.9,74.3,70.7,68.9,95,74,51,30.10,30.04,7,3,12,0.00
2013-7-17,92.6,81.4,67.9,75.2,70.9,66.4,97,72,48,30.15,30.01,7,3,11,0.00
2013-7-18,90.5,81.9,73.1,74.4,71.1,69.6,90,71,53,30.01,29.72,13,6,20,0.00
2013-7-19,86.3,78.9,63.5,74.6,67.7,60.0,91,70,51,29.80,29.66,10,3,20,0.00
2013-7-20,85.5,71.0,55.7,67.9,62.8,55.0,99,78,50,29.86,29.75,3,1,8,0.00
2013-7-21,87.7,76.1,66.4,70.9,66.9,62.3,91,75,47,29.81,29.64,5,2,7,0.00
2013-7-22,90.2,76.4,66.1,76.9,69.2,60.1,99,80,53,29.77,29.57,11,4,19,0.00
2013-7-23,73.8,64.7,57.8,61.6,58.2,55.7,97,80,56,29.92,29.74,7,2,19,0.00
2013-7-24,81.0,67.8,53.2,64.4,59.3,52.4,99,76,51,29.98,29.89,4,1,10,0.00
2013-7-25,86.8,71.2,57.4,72.9,63.8,55.1,96,79,57,29.92,29.77,10,2,13,0.00
2013-7-26,69.5,62.9,50.4,64.0,56.3,48.3,99,80,61,30.00,29.83,7,3,13,0.00
2013-7-27,68.5,55.9,42.3,52.0,47.2,-99.9,99,76,48,30.03,29.92,7,2,13,0.00
2013-7-28,74.6,59.2,41.0,55.7,49.5,40.2,98,73,44,29.99,29.92,7,2,10,0.00
2013-7-29,76.8,63.6,47.3,60.0,54.6,45.9,98,75,48,30.02,29.95,5,2,10,0.00
2013-7-30,80.7,68.7,62.8,68.3,63.6,58.5,97,85,64,29.98,29.93,3,1,9,0.00
2013-7-31,83.0,68.6,55.3,68.7,61.6,54.7,100,81,52,30.02,29.92,4,1,7,0.00
2013-8-1,84.4,68.2,53.8,74.6,62.7,53.2,99,84,56,29.98,29.77,11,2,15,0.08
2013-8-2,72.4,64.6,56.7,66.3,62.5,56.1,100,93,69,29.96,29.78,5,0,9,0.22
2013-8-3,76.5,68.1,50.4,62.5,57.1,50.4,100,70,48,30.11,29.96,5,2,7,0.01
2013-8-4,81.7,67.7,52.1,63.1,58.3,50.6,99,74,48,30.13,29.89,6,2,8,0.00
2013-8-5,84.5,72.2,63.5,74.6,66.8,60.4,97,84,63,29.89,29.70,5,2,9,0.01
2013-8-6,85.6,72.1,58.6,71.8,65.6,58.0,100,82,55,29.76,29.64,8,2,11,0.01
2013-8-7,77.5,67.1,58.8,65.6,60.9,56.8,99,82,59,29.93,29.70,5,2,9,0.00
2013-8-8,77.4,65.9,59.3,66.3,59.7,54.6,96,81,65,29.96,29.87,6,2,10,0.01
2013-8-9,78.4,68.4,58.1,65.0,60.5,55.4,99,78,53,30.04,29.90,6,2,11,0.00
2013-8-10,80.6,65.6,50.7,66.7,59.6,50.0,100,83,54,30.09,29.96,5,1,9,0.06
2013-8-11,79.8,66.8,61.3,72.3,65.2,61.3,100,95,76,30.00,29.90,9,2,11,0.65
2013-8-12,77.9,65.7,54.5,65.6,59.5,54.1,100,83,52,29.99,29.92,6,2,11,0.00
2013-8-13,74.7,63.0,50.3,63.1,55.5,50.0,100,79,48,30.09,29.98,6,2,12,0.01
2013-8-14,76.8,62.4,47.1,59.8,54.4,46.3,100,78,48,30.12,30.02,4,1,12,0.00
2013-8-15,71.9,61.9,50.3,61.8,57.4,49.3,100,87,65,30.06,29.98,5,1,9,0.00
2013-8-16,76.6,63.3,50.2,62.3,57.2,49.7,100,83,54,30.12,30.05,4,1,8,0.01
2013-8-17,79.4,67.0,51.2,62.3,57.1,49.5,98,73,49,30.11,30.00,5,2,14,0.00
2013-8-18,80.5,68.4,54.2,62.5,58.0,51.4,95,71,46,30.05,29.93,7,2,14,0.00
2013-8-19,85.2,73.7,63.9,71.4,66.0,59.5,91,78,61,29.94,29.78,7,4,15,0.00
2013-8-20,87.6,77.0,68.3,76.2,70.9,66.0,94,82,66,29.81,29.73,7,4,12,0.00
2013-8-21,86.2,76.1,71.0,76.0,71.7,68.2,99,87,68,29.85,29.74,8,3,12,0.03
2013-8-22,82.1,73.8,66.0,73.1,69.8,65.5,100,88,69,29.99,29.83,16,3,21,0.66
2013-8-23,83.9,75.0,66.0,75.5,70.8,64.8,99,87,73,29.99,29.87,5,2,9,0.00
2013-8-24,86.7,76.3,71.0,76.6,71.9,69.3,96,87,68,29.96,29.84,9,4,14,0.04
2013-8-25,90.7,81.1,73.1,78.4,74.1,70.3,92,80,63,29.93,29.84,10,6,18,0.00
2013-8-26,92.2,82.1,74.1,79.0,74.3,70.0,91,78,62,29.89,29.73,10,5,16,0.00
2013-8-27,90.6,81.2,75.3,79.8,73.2,68.1,98,77,65,29.76,29.69,10,5,15,0.00
2013-8-28,94.8,81.5,71.1,82.2,75.9,70.8,100,85,62,29.85,29.76,3,1,13,0.00
2013-8-29,91.6,80.2,67.0,76.5,70.8,65.9,98,75,47,29.87,29.74,9,2,12,0.00
2013-8-30,86.6,76.9,64.9,76.9,71.6,63.4,100,84,67,29.76,29.72,7,2,12,0.00
2013-8-31,90.0,73.5,59.0,73.7,67.3,58.7,100,83,52,29.77,29.64,4,1,11,0.00
2013-9-1,77.8,68.5,60.0,71.6,62.6,56.2,100,83,61,29.90,29.63,7,3,12,0.33
2013-9-2,75.1,61.6,48.4,58.8,54.3,47.8,100,79,51,30.00,29.90,5,2,12,0.00
2013-9-3,83.3,65.9,51.4,66.9,59.2,50.3,97,81,52,30.02,29.90,5,2,8,0.00
2013-9-4,88.4,74.0,60.4,70.2,65.0,58.7,97,76,44,30.01,29.93,7,2,12,0.00
2013-9-5,87.2,74.5,63.1,72.3,66.5,61.9,99,78,53,30.06,29.96,6,1,10,0.00
2013-9-6,90.0,77.8,67.9,72.8,68.3,64.1,91,74,53,29.97,29.74,6,3,16,0.01
2013-9-7,92.0,77.7,66.7,76.3,71.1,64.9,97,81,57,29.81,29.74,7,2,14,0.00
2013-9-8,77.6,72.4,68.3,72.1,69.7,67.4,97,91,81,29.85,29.72,6,2,13,0.00
2013-9-9,94.4,78.6,68.2,72.8,68.9,65.9,100,75,43,29.72,29.56,12,4,19,0.00
2013-9-10,87.8,72.1,61.8,70.9,65.7,60.6,100,82,52,29.90,29.68,4,1,13,0.00
2013-9-11,87.5,71.5,60.3,68.6,62.0,58.4,99,76,39,29.98,29.89,3,1,6,0.00
2013-9-12,76.1,63.9,50.6,59.2,52.2,48.1,93,68,43,30.13,29.98,7,3,13,0.00
2013-9-13,76.1,60.9,40.3,54.2,48.2,-99.9,99,66,37,30.17,29.99,5,1,13,0.00
2013-9-14,71.9,61.9,50.2,58.0,51.2,45.2,85,69,48,30.00,29.74,8,4,16,0.02
2013-9-15,65.8,60.0,48.1,58.4,55.0,47.3,98,84,71,30.19,29.70,9,5,16,0.01
2013-9-16,72.2,57.8,46.0,58.0,52.0,45.2,99,83,54,30.30,30.13,4,2,14,0.01
2013-9-17,62.4,56.7,51.4,62.4,55.8,49.6,100,97,91,30.15,29.82,5,3,9,0.08
2013-9-18,88.5,73.9,62.5,73.1,68.0,62.5,100,84,57,29.82,29.56,8,4,15,0.00
2013-9-19,79.6,71.6,59.1,69.4,64.0,51.5,87,77,58,29.80,29.52,11,3,16,0.01
2013-9-20,64.5,52.2,39.3,52.9,44.5,-99.9,97,80,55,29.92,29.79,5,2,8,0.00
2013-9-21,76.8,51.6,34.3,54.2,42.5,-99.9,100,77,33,29.97,29.81,4,1,8,0.01
2013-9-22,80.8,64.2,50.0,58.9,52.8,46.6,92,69,41,29.83,29.69,7,3,16,0.00
2013-9-23,75.7,62.7,51.0,56.3,53.0,49.3,95,73,46,29.78,29.68,8,4,13,0.00
2013-9-24,79.0,61.3,53.5,61.0,54.6,50.4,97,80,52,29.83,29.75,3,1,13,0.00
2013-9-25,77.4,63.7,50.9,58.7,55.0,49.3,97,76,47,29.85,29.69,5,2,8,0.00
2013-9-26,82.8,68.6,57.7,63.9,59.9,54.5,96,76,49,29.75,29.65,10,5,15,0.00
2013-9-27,85.2,73.0,66.1,65.3,62.9,61.7,90,72,48,29.75,29.64,11,6,16,0.04
2013-9-28,70.1,60.3,45.5,63.8,53.4,41.1,96,79,48,29.91,29.51,9,4,13,0.10
2013-9-29,77.8,59.7,41.3,48.7,44.1,38.1,93,61,31,29.92,29.74,13,5,21,0.00
2013-9-30,80.3,68.8,54.1,54.0,51.8,46.7,83,57,38,29.74,29.52,11,6,21,0.00
2013-10-1,81.9,61.0,50.8,54.0,33.9,-99.9,86,50,18,29.89,29.57,11,3,21,0.00
2013-10-2,81.6,45.0,60.6,64.3,-5.2,-99.9,76,33,29,29.91,29.67,7,2,10,0.00
2013-10-3,74.8,64.7,58.6,67.0,61.0,57.1,100,88,69,29.76,29.65,7,2,12,0.36
2013-10-4,70.9,61.6,56.6,65.3,60.0,56.3,100,95,82,29.79,29.56,8,4,16,1.27
2013-10-5,60.8,47.4,38.5,60.8,40.3,35.5,100,77,55,29.75,29.63,13,6,17,0.00
2013-10-6,48.7,44.5,40.3,48.1,43.4,39.0,100,96,86,29.88,29.67,6,2,17,0.18
2013-10-7,74.0,53.1,36.5,52.1,44.6,36.2,100,77,41,29.96,29.88,5,2,8,0.01
2013-10-8,77.5,62.0,49.4,50.5,46.4,43.0,80,59,33,29.89,29.74,10,5,18,0.00
2013-10-9,75.2,62.2,52.1,55.3,50.8,48.2,88,68,44,29.93,29.84,6,4,16,0.00
2013-10-10,77.3,63.3,51.4,57.4,51.6,47.2,87,67,43,29.92,29.72,9,4,11,0.00
2013-10-11,71.0,61.3,50.4,60.7,54.5,43.5,89,79,56,29.72,29.49,12,7,16,0.00
2013-10-12,64.5,41.5,43.3,43.4,8.5,-99.9,89,48,26,30.17,29.70,9,3,15,0.00
2013-10-13,-200.0,0.0,200.0,-99.9,-99.9,-99.9,0,0,100,30.35,30.17,2,0,3,0.01
2013-10-14,-200.0,0.0,200.0,-99.9,-99.9,-99.9,0,0,100,30.25,29.62,9,-165,11,0.99
2013-10-15,-200.0,0.0,200.0,-99.9,-99.9,-99.9,0,0,100,29.82,29.57,12,6,18,0.03
2013-10-16,-200.0,0.0,200.0,-99.9,-99.9,-99.9,0,0,100,29.92,29.82,4,2,18,0.01
2013-10-17,40.7,0.8,36.2,37.1,-97.3,-99.9,92,2,86,29.91,29.70,6,2,11,0.01
2013-10-18,36.3,4.4,30.7,34.2,-82.6,-99.9,95,12,92,30.02,29.88,5,1,10,0.00
2013-10-19,55.5,15.3,36.0,41.9,-52.5,-99.9,77,23,52,29.88,29.65,6,3,13,0.03
2013-10-20,58.6,43.0,35.4,43.2,35.6,29.6,90,76,54,29.90,29.62,8,4,15,0.00
2013-10-21,46.6,36.3,25.6,34.2,28.7,23.7,95,75,48,29.99,29.90,6,2,15,0.00
2013-10-22,42.4,35.8,31.5,31.8,28.5,25.8,95,75,58,30.05,29.89,6,3,12,0.03
2013-10-23,39.6,33.8,29.2,36.0,29.2,25.0,95,84,69,30.12,30.02,4,1,10,0.05
2013-10-24,48.6,36.0,25.8,34.0,28.6,23.0,95,76,45,30.33,30.12,10,3,15,0.00
2013-10-25,58.2,40.6,21.5,40.0,31.4,19.9,96,73,49,30.34,29.88,19,8,25,0.00
2013-10-26,48.1,39.4,26.9,37.0,29.5,22.6,89,69,46,30.11,29.88,13,6,25,0.00
2013-10-27,61.4,41.1,25.5,39.0,31.2,22.4,90,71,42,30.05,29.75,10,4,22,0.00
2013-10-28,43.9,38.0,31.7,34.7,31.9,29.1,91,79,66,30.28,30.01,10,7,20,0.00
2013-10-29,51.3,42.2,35.4,46.4,38.7,31.0,98,88,71,30.26,29.96,6,2,20,0.24
2013-10-30,55.5,48.8,42.0,55.0,48.4,41.5,100,98,94,29.96,29.65,6,2,10,0.07
2013-10-31,42.0,39.0,35.9,41.5,37.7,35.1,99,95,91,29.65,29.40,9,6,13,0.01
2013-11-1,55.3,43.6,36.1,43.1,38.7,34.6,96,84,59,29.86,29.44,13,7,18,0.00
2013-11-2,53.4,42.6,32.2,39.3,35.9,31.0,96,79,52,30.06,29.86,9,5,14,0.00
2013-11-3,53.7,44.6,33.6,38.9,35.0,30.9,90,70,48,30.02,29.71,19,10,25,0.00
2013-11-4,51.1,43.1,27.0,44.1,37.3,25.2,96,81,62,30.11,29.73,11,6,25,0.00
2013-11-5,36.8,31.8,22.3,34.0,30.6,21.1,99,95,85,30.15,29.92,17,7,23,0.58
2013-11-6,38.5,31.0,25.9,32.9,28.1,24.4,99,90,66,30.19,29.97,14,6,20,0.01
2013-11-7,37.8,30.9,27.2,30.7,27.4,23.3,98,87,64,30.29,30.19,10,6,13,0.00
2013-11-8,54.2,40.7,24.5,41.9,32.6,21.0,89,74,51,30.21,29.63,17,7,24,0.00
2013-11-9,49.3,40.0,28.0,39.9,34.0,24.7,90,79,64,30.27,29.72,15,8,24,0.00
2013-11-10,43.7,31.5,17.8,33.2,26.4,16.1,95,82,62,30.37,30.07,7,3,24,0.00
2013-11-11,38.1,21.9,9.0,33.9,17.9,5.4,94,84,76,30.75,30.07,18,10,24,0.00
2013-11-12,28.2,14.6,-0.5,16.8,8.6,-3.3,91,78,59,30.87,30.52,8,3,21,0.00
2013-11-13,53.3,36.2,19.9,33.3,24.5,12.3,74,63,44,30.51,29.89,19,10,30,0.00
2013-11-14,52.0,37.8,28.8,43.6,33.2,25.9,97,84,71,29.89,29.77,7,3,30,0.00
2013-11-15,56.2,38.6,24.0,43.1,33.8,23.3,99,84,54,29.83,29.55,10,3,12,0.00
2013-11-16,60.1,45.5,38.1,52.7,41.1,30.8,98,86,57,29.56,29.16,15,7,20,0.00
2013-11-17,49.5,40.6,32.6,40.9,35.4,27.8,96,82,66,29.88,29.29,14,6,19,0.03
2013-11-18,42.8,33.0,25.3,33.6,27.9,23.8,95,82,58,30.21,29.88,10,4,15,0.00
2013-11-19,53.3,40.8,30.0,37.8,32.1,27.2,90,72,49,30.20,29.83,16,10,19,0.00
2013-11-20,48.1,42.1,33.9,36.8,34.3,31.3,96,74,62,29.95,29.76,11,7,17,0.00
2013-11-21,34.1,23.5,16.4,33.1,20.3,13.9,98,87,78,30.54,29.95,15,11,23,0.00
2013-11-22,30.9,17.2,2.9,15.1,9.9,-0.7,90,74,44,30.67,30.53,15,6,21,0.00
2013-11-23,17.7,8.7,2.3,6.8,2.5,-1.3,88,76,53,30.89,30.67,14,5,20,0.00
2013-11-24,32.0,18.6,6.3,17.4,10.5,1.4,83,71,53,30.76,30.09,14,8,23,0.00
2013-11-25,43.0,30.7,21.0,30.3,22.7,16.6,89,72,55,30.12,30.01,16,8,23,0.00
2013-11-26,31.2,21.3,6.3,23.5,11.7,2.6,87,67,47,30.39,30.10,17,10,24,0.00
2013-11-27,25.9,14.6,1.2,14.5,8.5,-1.5,90,77,56,30.40,30.02,10,3,23,0.00
2013-11-28,29.2,17.6,7.9,18.7,11.8,4.9,91,78,59,30.51,30.03,12,5,20,0.00
2013-11-29,35.5,22.8,5.1,25.1,17.1,2.1,93,79,63,30.52,30.11,11,5,20,0.00
2013-11-30,47.8,32.5,22.4,32.5,25.9,19.5,93,78,53,30.14,30.02,7,4,13,0.00
2013-12-1,35.6,27.7,17.6,27.9,23.5,15.4,94,84,71,30.16,29.86,5,1,9,0.00
2013-12-2,46.2,34.1,28.0,37.0,30.7,26.1,95,88,70,29.86,29.48,9,3,12,0.00
2013-12-3,35.2,31.7,24.2,34.7,31.0,22.7,99,97,92,29.68,29.51,10,6,14,0.06
2013-12-4,32.0,24.7,8.8,31.8,23.6,5.1,100,95,84,29.88,29.50,15,7,23,0.00
2013-12-5,9.1,4.5,-2.6,5.1,0.4,-6.7,86,83,78,30.45,29.88,14,10,23,0.00
2013-12-6,5.0,-3.4,-9.2,0.2,-7.7,-13.2,84,81,75,30.75,30.43,8,5,19,0.00
2013-12-7,9.2,-1.5,-12.2,4.1,-6.2,-15.7,88,80,65,30.82,30.57,5,2,13,0.00
2013-12-8,13.6,9.8,2.4,10.2,6.9,-0.1,91,88,83,30.56,30.07,6,4,10,0.00
2013-12-9,11.0,-1.3,-8.4,6.3,-5.7,-12.4,90,81,71,30.26,29.96,15,7,20,0.00
2013-12-10,17.9,11.6,2.8,14.8,7.6,-1.4,93,84,74,30.30,29.92,18,8,25,0.00
2013-12-11,15.0,-2.9,-18.6,13.1,-7.4,-22.7,92,81,74,30.66,30.30,17,5,21,0.00
2013-12-12,25.9,15.6,7.5,20.2,11.6,2.5,94,84,73,30.42,30.09,17,4,22,0.00
2013-12-13,21.7,14.3,6.4,18.3,11.7,3.9,94,89,85,30.20,30.03,12,6,17,0.00
2013-12-14,14.5,10.7,4.4,10.3,7.4,1.4,90,86,81,30.24,30.15,11,7,16,0.00
2013-12-15,8.3,6.6,4.3,4.7,2.5,-1.3,88,83,75,30.17,30.08,7,3,9,0.00
2013-12-16,26.3,14.5,7.5,24.3,11.9,4.7,95,89,85,30.10,30.00,9,4,13,0.00
2013-12-17,30.5,23.3,11.7,28.4,19.4,9.7,94,85,72,30.16,30.06,14,7,23,0.00
2013-12-18,39.0,28.6,13.2,32.7,24.0,11.3,96,83,73,30.07,29.68,12,4,23,0.07
2013-12-19,27.9,17.6,13.8,25.9,15.0,11.0,97,89,86,29.96,29.78,14,10,19,0.00
2013-12-20,16.1,12.6,4.4,12.9,10.2,2.0,93,90,86,29.98,29.87,12,6,19,0.00
2013-12-21,19.9,14.0,4.4,17.9,12.0,2.1,94,92,89,29.95,29.85,14,5,19,0.00
2013-12-22,14.1,7.4,-2.9,12.4,3.9,-7.0,93,86,81,30.37,29.92,13,8,19,0.00
2013-12-23,0.2,-7.1,-13.7,-7.1,-13.0,-18.7,82,75,61,30.61,30.37,11,6,16,0.00
2013-12-24,16.7,2.7,-16.4,14.5,-2.1,-20.7,91,80,64,30.59,30.19,12,5,16,0.00
2013-12-25,30.3,21.5,15.1,27.6,18.9,12.9,95,90,76,30.22,30.12,11,6,16,0.00
2013-12-26,36.8,25.9,14.8,30.1,22.2,12.9,93,86,74,30.19,30.04,8,4,11,0.00
2013-12-27,43.8,28.7,13.4,34.9,25.0,11.8,97,87,66,30.19,29.98,15,4,18,0.01
2013-12-28,53.9,32.5,6.3,35.0,26.0,3.0,96,79,45,30.04,29.62,20,7,26,0.00
2013-12-29,6.4,-3.4,-9.6,3.4,-10.2,-15.1,87,73,54,30.36,30.04,19,10,28,0.00
2013-12-30,11.8,2.7,-7.4,7.6,-1.6,-12.1,91,82,72,30.35,30.12,7,3,22,0.00
2013-12-31,4.3,1.0,-6.1,0.3,-2.4,-9.4,88,85,81,30.36,30.26,8,4,13,0.00
2014-1-1,-0.4,-2.9,-5.7,-5.5,-7.2,-9.8,85,81,77,30.49,30.34,11,8,15,0.00
2014-1-2,-0.6,-7.3,-14.8,-5.7,-11.9,-18.7,86,80,70,30.57,30.45,7,3,14,0.00